createdAt,value
2023-05-20T00:00:19.875Z,43.47
2023-05-20T00:02:46.472Z,43.47
2023-05-20T00:05:12.920Z,43.62
2023-05-20T00:07:39.803Z,43.49
2023-05-20T00:10:06.728Z,43.05
2023-05-20T00:12:33.269Z,43.30
2023-05-20T00:14:59.708Z,43.87
2023-05-20T00:17:28.130Z,43.82
2023-05-20T00:19:54.779Z,43.65
2023-05-20T00:22:21.634Z,44.16
2023-05-20T00:24:48.096Z,45.35
2023-05-20T00:27:14.556Z,45.32
2023-05-20T00:29:40.977Z,45.32
2023-05-20T00:32:07.786Z,45.55
2023-05-20T00:34:34.390Z,45.30
2023-05-20T00:37:00.801Z,45.43
2023-05-20T00:39:27.250Z,46.19
2023-05-20T00:41:53.716Z,45.42
2023-05-20T00:44:23.883Z,45.72
2023-05-20T00:46:50.475Z,45.75
2023-05-20T00:49:17.473Z,45.72
2023-05-20T00:51:44.054Z,45.39
2023-05-20T00:54:10.771Z,46.23
2023-05-20T00:56:37.307Z,45.95
2023-05-20T00:59:04.719Z,46.45
2023-05-20T01:01:31.093Z,47.35
2023-05-20T01:03:57.533Z,46.00
2023-05-20T01:06:24.127Z,47.97
2023-05-20T01:08:50.654Z,47.84
2023-05-20T01:11:35.571Z,47.89
2023-05-20T01:14:06.608Z,47.75
2023-05-20T01:16:35.478Z,48.29
2023-05-20T01:19:03.955Z,48.57
2023-05-20T01:21:32.235Z,49.27
2023-05-20T01:23:58.681Z,49.47
2023-05-20T01:26:27.037Z,49.22
2023-05-20T01:28:54.267Z,49.33
2023-05-20T01:31:32.492Z,48.90
2023-05-20T01:34:00.187Z,48.41
2023-05-20T01:36:27.611Z,48.29
2023-05-20T01:38:55.231Z,47.27
2023-05-20T01:41:25.073Z,47.96
2023-05-20T01:43:51.622Z,47.57
2023-05-20T01:46:18.092Z,47.37
2023-05-20T01:48:44.455Z,47.44
2023-05-20T01:51:10.955Z,47.61
2023-05-20T01:53:37.335Z,47.44
2023-05-20T01:56:05.785Z,48.50
2023-05-20T01:58:32.278Z,49.48
2023-05-20T02:00:58.765Z,48.60
2023-05-20T02:03:25.237Z,48.58
2023-05-20T02:05:51.720Z,49.11
2023-05-20T02:08:18.164Z,49.60
2023-05-20T02:10:44.580Z,50.12
2023-05-20T02:13:10.983Z,49.89
2023-05-20T02:15:41.574Z,50.22
2023-05-20T02:18:08.406Z,50.05
2023-05-20T02:20:38.434Z,50.10
2023-05-20T02:23:05.862Z,50.18
2023-05-20T02:25:32.915Z,50.37
2023-05-20T02:27:59.585Z,50.37
2023-05-20T02:30:26.966Z,49.85
2023-05-20T02:32:53.424Z,50.01
2023-05-20T02:35:19.983Z,49.92
2023-05-20T02:37:46.481Z,49.75
2023-05-20T02:40:12.899Z,49.45
2023-05-20T02:42:39.320Z,49.21
2023-05-20T02:45:06.379Z,49.48
2023-05-20T02:47:32.784Z,50.10
2023-05-20T02:49:59.201Z,49.41
2023-05-20T02:52:25.567Z,48.76
2023-05-20T02:54:52.744Z,49.27
2023-05-20T02:57:19.211Z,48.97
2023-05-20T02:59:45.980Z,48.96
2023-05-20T03:02:12.330Z,48.94
2023-05-20T03:04:38.936Z,49.24
2023-05-20T03:07:07.505Z,50.03
2023-05-20T03:09:33.910Z,50.43
2023-05-20T03:12:00.435Z,50.81
2023-05-20T03:14:26.874Z,51.76
2023-05-20T03:16:55.916Z,51.78
2023-05-20T03:19:22.618Z,52.15
2023-05-20T03:21:50.565Z,52.85
2023-05-20T03:24:16.996Z,53.41
2023-05-20T03:26:43.823Z,53.53
2023-05-20T03:29:10.789Z,53.62
2023-05-20T03:31:37.195Z,54.41
2023-05-20T03:34:03.610Z,54.31
2023-05-20T03:36:30.017Z,54.96
2023-05-20T03:38:56.518Z,54.55
2023-05-20T03:41:23.077Z,54.52
2023-05-20T03:43:49.508Z,54.56
2023-05-20T03:46:16.086Z,54.18
2023-05-20T03:48:42.540Z,54.05
2023-05-20T03:51:08.911Z,54.58
2023-05-20T03:53:35.297Z,54.38
2023-05-20T03:56:01.714Z,54.11
2023-05-20T03:58:29.215Z,53.61
2023-05-20T04:00:55.890Z,54.34
2023-05-20T04:03:22.899Z,53.52
2023-05-20T04:05:50.573Z,53.26
2023-05-20T04:08:18.729Z,52.81
2023-05-20T04:10:46.309Z,52.51
2023-05-20T04:13:12.725Z,52.92
2023-05-20T04:15:39.205Z,52.60
2023-05-20T04:18:06.219Z,52.31
2023-05-20T04:20:33.184Z,52.41
2023-05-20T04:22:59.679Z,52.23
2023-05-20T04:25:26.112Z,52.89
2023-05-20T04:27:54.197Z,53.44
2023-05-20T04:30:22.009Z,53.75
2023-05-20T04:32:50.583Z,53.98
2023-05-20T04:35:17.439Z,52.80
2023-05-20T04:37:47.983Z,53.28
2023-05-20T04:40:14.682Z,53.42
2023-05-20T04:42:41.100Z,52.93
2023-05-20T04:45:08.769Z,52.63
2023-05-20T04:47:38.628Z,52.91
2023-05-20T04:50:13.413Z,52.66
2023-05-20T04:52:41.798Z,52.78
2023-05-20T04:55:12.681Z,52.38
2023-05-20T04:57:42.277Z,53.93
2023-05-20T05:00:10.620Z,54.52
2023-05-20T05:02:37.484Z,53.84
2023-05-20T05:05:04.204Z,53.27
2023-05-20T05:07:31.060Z,53.09
2023-05-20T05:09:57.529Z,53.48
2023-05-20T05:12:24.018Z,54.71
2023-05-20T05:14:50.944Z,54.34
2023-05-20T05:17:17.853Z,54.25
2023-05-20T05:19:44.213Z,54.46
2023-05-20T05:22:10.774Z,54.61
2023-05-20T05:24:37.206Z,54.75
2023-05-20T05:27:03.789Z,54.23
2023-05-20T05:29:30.331Z,53.56
2023-05-20T05:31:56.778Z,53.74
2023-05-20T05:34:23.211Z,54.54
2023-05-20T05:36:49.616Z,54.92
2023-05-20T05:39:16.256Z,54.71
2023-05-20T05:41:42.687Z,55.56
2023-05-20T05:44:09.179Z,55.78
2023-05-20T05:46:35.689Z,55.76
2023-05-20T05:49:02.276Z,55.16
2023-05-20T05:51:29.050Z,55.24
2023-05-20T05:53:55.458Z,55.15
2023-05-20T05:56:21.848Z,55.46
2023-05-20T05:58:48.403Z,54.95
2023-05-20T06:01:14.863Z,55.39
2023-05-20T06:03:41.351Z,54.63
2023-05-20T06:06:07.939Z,54.87
2023-05-20T06:08:34.374Z,55.09
2023-05-20T06:11:00.776Z,54.00
2023-05-20T06:13:27.146Z,54.09
2023-05-20T06:15:53.737Z,54.42
2023-05-20T06:18:20.135Z,53.56
2023-05-20T06:20:46.528Z,53.85
2023-05-20T06:23:12.973Z,54.39
2023-05-20T06:25:39.401Z,54.11
2023-05-20T06:28:05.840Z,55.08
2023-05-20T06:30:32.274Z,54.90
2023-05-20T06:32:58.723Z,54.57
2023-05-20T06:35:25.233Z,54.28
2023-05-20T06:37:51.660Z,54.21
2023-05-20T06:40:18.206Z,54.47
2023-05-20T06:42:44.668Z,54.34
2023-05-20T06:45:11.558Z,54.31
2023-05-20T06:47:38.094Z,53.87
2023-05-20T06:50:04.853Z,53.47
2023-05-20T06:52:31.229Z,53.57
2023-05-20T06:54:57.595Z,53.40
2023-05-20T06:57:23.990Z,52.73
2023-05-20T06:59:50.454Z,52.78
2023-05-20T07:02:16.903Z,52.50
2023-05-20T07:04:43.479Z,51.63
2023-05-20T07:07:09.902Z,51.60
2023-05-20T07:09:36.289Z,52.10
2023-05-20T07:12:03.560Z,52.02
2023-05-20T07:14:30.054Z,51.76
2023-05-20T07:16:56.461Z,51.08
2023-05-20T07:19:22.918Z,51.33
2023-05-20T07:21:50.030Z,51.04
2023-05-20T07:24:17.286Z,51.49
2023-05-20T07:26:43.936Z,51.20
2023-05-20T07:29:10.416Z,51.76
2023-05-20T07:31:36.895Z,51.56
2023-05-20T07:34:03.403Z,51.96
2023-05-20T07:36:30.685Z,51.42
2023-05-20T07:39:03.880Z,51.00
2023-05-20T07:41:31.496Z,50.82
2023-05-20T07:43:57.895Z,50.98
2023-05-20T07:46:24.340Z,50.50
2023-05-20T07:48:50.798Z,50.69
2023-05-20T07:51:17.188Z,50.36
2023-05-20T07:53:43.613Z,50.91
2023-05-20T07:56:10.057Z,50.61
2023-05-20T07:58:36.534Z,49.92
2023-05-20T08:01:03.247Z,50.26
2023-05-20T08:03:29.825Z,51.02
2023-05-20T08:05:56.275Z,49.59
2023-05-20T08:08:22.635Z,50.62
2023-05-20T08:10:50.903Z,50.82
2023-05-20T08:13:17.349Z,50.41
2023-05-20T08:15:43.763Z,50.32
2023-05-20T08:18:10.227Z,50.43
2023-05-20T08:20:36.699Z,49.82
2023-05-20T08:23:03.184Z,50.50
2023-05-20T08:25:32.645Z,49.56
2023-05-20T08:28:03.875Z,50.67
2023-05-20T08:30:30.682Z,49.58
2023-05-20T08:32:57.244Z,49.84
2023-05-20T08:35:24.777Z,51.23
2023-05-20T08:37:53.914Z,49.06
2023-05-20T08:40:21.317Z,49.08
2023-05-20T08:42:54.347Z,49.09
2023-05-20T08:45:26.450Z,49.93
2023-05-20T08:47:53.677Z,49.97
2023-05-20T08:50:21.067Z,49.51
2023-05-20T08:52:49.128Z,49.50
2023-05-20T08:55:26.901Z,49.14
2023-05-20T08:57:55.149Z,46.75
2023-05-20T09:00:27.185Z,46.80
2023-05-20T09:02:54.725Z,48.10
2023-05-20T09:05:22.201Z,48.20
2023-05-20T09:07:49.235Z,48.07
2023-05-20T09:10:15.788Z,48.53
2023-05-20T09:12:42.263Z,48.60
2023-05-20T09:15:09.087Z,48.48
2023-05-20T09:17:37.131Z,47.60
2023-05-20T09:20:08.809Z,47.56
2023-05-20T09:22:35.565Z,48.93
2023-05-20T09:25:02.069Z,47.48
2023-05-20T09:27:28.456Z,47.21
2023-05-20T09:29:54.865Z,49.09
2023-05-20T09:32:24.238Z,48.73
2023-05-20T09:34:51.125Z,47.41
2023-05-20T09:37:22.171Z,48.50
2023-05-20T09:40:03.893Z,47.14
2023-05-20T09:42:47.866Z,47.42
2023-05-20T09:45:14.308Z,47.75
2023-05-20T09:47:41.660Z,47.57
2023-05-20T09:50:08.963Z,47.64
2023-05-20T09:52:37.295Z,46.92
2023-05-20T09:55:05.812Z,46.41
2023-05-20T09:57:36.282Z,45.76
2023-05-20T10:00:08.581Z,45.95
2023-05-20T10:02:36.039Z,45.15
2023-05-20T10:05:08.154Z,45.70
2023-05-20T10:07:42.592Z,46.81
2023-05-20T10:10:21.631Z,45.83
2023-05-20T10:13:00.060Z,45.82
2023-05-20T10:16:03.463Z,44.03
2023-05-20T10:18:50.680Z,45.19
2023-05-20T10:21:18.838Z,45.65
2023-05-20T10:23:45.961Z,45.23
2023-05-20T10:26:12.588Z,46.51
2023-05-20T10:28:41.110Z,46.06
2023-05-20T10:31:23.968Z,44.31
2023-05-20T10:33:53.262Z,44.48
2023-05-20T10:36:28.151Z,43.37
2023-05-20T10:38:59.450Z,44.18
2023-05-20T10:41:30.570Z,45.21
2023-05-20T10:44:04.646Z,45.38
2023-05-20T10:46:41.927Z,44.57
2023-05-20T10:49:25.160Z,43.93
2023-05-20T10:51:54.209Z,42.27
2023-05-20T10:54:22.151Z,42.78
2023-05-20T10:56:53.664Z,41.67
2023-05-20T10:59:21.654Z,43.65
2023-05-20T11:01:48.466Z,41.46
2023-05-20T11:04:17.238Z,42.37
2023-05-20T11:06:54.209Z,42.39
2023-05-20T11:09:20.965Z,43.21
2023-05-20T11:11:47.803Z,41.46
2023-05-20T11:14:14.986Z,43.46
2023-05-20T11:16:42.298Z,43.14
2023-05-20T11:19:09.496Z,41.25
2023-05-20T11:21:43.157Z,42.21
2023-05-20T11:24:09.635Z,43.40
2023-05-20T11:26:36.883Z,41.87
2023-05-20T11:29:03.526Z,42.25
2023-05-20T11:31:31.818Z,41.30
2023-05-20T11:34:02.297Z,41.58
2023-05-20T11:36:28.850Z,41.74
2023-05-20T11:38:58.516Z,39.58
2023-05-20T11:41:28.641Z,41.79
2023-05-20T11:43:57.152Z,42.35
2023-05-20T11:46:23.600Z,40.38
2023-05-20T11:48:56.903Z,40.50
2023-05-20T11:51:27.310Z,39.81
2023-05-20T11:53:54.244Z,41.42
2023-05-20T11:56:21.921Z,38.34
2023-05-20T11:58:48.492Z,38.90
2023-05-20T12:03:47.367Z,38.95
2023-05-20T12:06:14.059Z,39.47
2023-05-20T12:08:40.533Z,39.53
2023-05-20T12:11:07.108Z,38.14
2023-05-20T12:13:35.215Z,38.63
2023-05-20T12:16:02.321Z,40.20
2023-05-20T12:18:28.792Z,40.26
2023-05-20T12:20:55.275Z,41.16
2023-05-20T12:23:21.829Z,39.89
2023-05-20T12:25:49.825Z,39.47
2023-05-20T12:28:17.637Z,40.87
2023-05-20T12:30:44.085Z,39.90
2023-05-20T12:33:10.488Z,40.04
2023-05-20T12:35:43.733Z,38.66
2023-05-20T12:38:10.478Z,37.80
2023-05-20T12:40:42.030Z,39.64
2023-05-20T12:43:08.615Z,39.97
2023-05-20T12:45:35.120Z,39.88
2023-05-20T12:48:02.119Z,40.47
2023-05-20T12:50:28.614Z,39.79
2023-05-20T12:52:55.400Z,39.80
2023-05-20T12:55:22.130Z,40.56
2023-05-20T12:57:49.749Z,40.13
2023-05-20T13:00:16.629Z,39.76
2023-05-20T13:02:43.639Z,39.77
2023-05-20T13:05:11.226Z,41.46
2023-05-20T13:07:37.995Z,41.54
2023-05-20T13:10:05.253Z,41.26
2023-05-20T13:12:31.767Z,40.47
2023-05-20T13:14:58.213Z,38.70
2023-05-20T13:17:24.753Z,39.87
2023-05-20T13:19:51.533Z,41.01
2023-05-20T13:22:18.132Z,41.96
2023-05-20T13:24:44.559Z,39.91
2023-05-20T13:27:11.068Z,40.40
2023-05-20T13:29:37.674Z,40.86
2023-05-20T13:32:04.420Z,39.13
2023-05-20T13:34:31.606Z,39.46
2023-05-20T13:36:58.163Z,39.30
2023-05-20T13:39:24.982Z,40.51
2023-05-20T13:41:53.394Z,39.98
2023-05-20T13:44:19.826Z,40.53
2023-05-20T13:46:46.321Z,41.02
2023-05-20T13:49:12.967Z,40.49
2023-05-20T13:51:39.343Z,40.60
2023-05-20T13:54:06.546Z,41.24
2023-05-20T13:56:33.765Z,41.75
2023-05-20T13:59:00.177Z,40.84
2023-05-20T14:01:28.444Z,40.75
2023-05-20T14:03:55.015Z,41.31
2023-05-20T14:06:21.590Z,41.70
2023-05-20T14:08:47.975Z,41.58
2023-05-20T14:11:14.363Z,41.03
2023-05-20T14:13:41.356Z,40.52
2023-05-20T14:16:07.851Z,40.04
2023-05-20T14:18:34.242Z,40.80
2023-05-20T14:21:00.990Z,40.91
2023-05-20T14:23:27.400Z,42.02
2023-05-20T14:25:53.882Z,40.95
2023-05-20T14:28:20.341Z,41.97
2023-05-20T14:30:46.793Z,42.41
2023-05-20T14:33:13.259Z,41.40
2023-05-20T14:35:39.696Z,41.67
2023-05-20T14:38:06.793Z,40.98
2023-05-20T14:40:33.326Z,41.89
2023-05-20T14:43:00.086Z,42.30
2023-05-20T14:45:26.451Z,41.23
2023-05-20T14:47:52.985Z,40.48
2023-05-20T14:50:19.466Z,40.83
2023-05-20T14:52:46.168Z,41.45
2023-05-20T14:55:12.613Z,42.43
2023-05-20T14:57:39.061Z,42.00
2023-05-20T15:00:06.025Z,41.95
2023-05-20T15:02:32.650Z,40.66
2023-05-20T15:04:59.221Z,41.66
2023-05-20T15:07:26.550Z,41.21
2023-05-20T15:09:53.018Z,40.80
2023-05-20T15:12:19.434Z,40.45
2023-05-20T15:14:45.864Z,40.50
2023-05-20T15:17:12.781Z,41.74
2023-05-20T15:19:41.626Z,41.55
2023-05-20T15:22:08.417Z,40.90
2023-05-20T15:24:34.837Z,40.61
2023-05-20T15:27:01.250Z,40.50
2023-05-20T15:29:27.717Z,41.27
2023-05-20T15:31:54.117Z,41.35
2023-05-20T15:34:20.513Z,40.16
2023-05-20T15:36:46.935Z,40.88
2023-05-20T15:39:13.346Z,41.10
2023-05-20T15:41:42.140Z,41.05
2023-05-20T15:44:08.915Z,40.28
2023-05-20T15:46:35.698Z,40.97
2023-05-20T15:49:02.239Z,41.58
2023-05-20T15:51:28.770Z,41.16
2023-05-20T15:53:55.235Z,41.04
2023-05-20T15:56:22.260Z,41.03
2023-05-20T15:58:48.771Z,40.97
2023-05-20T16:01:15.384Z,39.87
2023-05-20T16:03:41.926Z,40.17
2023-05-20T16:06:10.405Z,40.44
2023-05-20T16:08:37.559Z,40.40
2023-05-20T16:11:04.705Z,40.04
2023-05-20T16:13:31.497Z,40.49
2023-05-20T16:15:58.157Z,39.98
2023-05-20T16:18:26.158Z,40.63
2023-05-20T16:20:52.598Z,40.31
2023-05-20T16:23:19.014Z,40.80
2023-05-20T16:25:45.622Z,40.45
2023-05-20T16:28:12.033Z,39.98
2023-05-20T16:30:38.499Z,40.33
2023-05-20T16:33:04.960Z,39.51
2023-05-20T16:35:31.401Z,40.04
2023-05-20T16:37:58.231Z,41.35
2023-05-20T16:40:24.687Z,42.00
2023-05-20T16:42:51.185Z,40.97
2023-05-20T16:45:17.607Z,41.08
2023-05-20T16:47:44.135Z,41.25
2023-05-20T16:50:10.671Z,40.33
2023-05-20T16:52:40.017Z,40.60
2023-05-20T16:55:08.343Z,40.66
2023-05-20T16:57:35.188Z,41.41
2023-05-20T17:00:02.268Z,42.27
2023-05-20T17:02:28.778Z,41.98
2023-05-20T17:04:55.310Z,41.79
2023-05-20T17:07:21.721Z,41.69
2023-05-20T17:09:48.145Z,42.14
2023-05-20T17:12:14.609Z,41.50
2023-05-20T17:14:40.970Z,41.25
2023-05-20T17:17:09.233Z,42.03
2023-05-20T17:19:36.198Z,42.11
2023-05-20T17:22:02.665Z,41.68
2023-05-20T17:24:29.053Z,41.74
2023-05-20T17:26:55.502Z,42.38
2023-05-20T17:29:21.956Z,42.43
2023-05-20T17:31:48.417Z,43.32
2023-05-20T17:34:14.877Z,43.06
2023-05-20T17:36:42.245Z,43.83
2023-05-20T17:39:09.657Z,43.22
2023-05-20T17:41:36.127Z,44.34
2023-05-20T17:44:02.476Z,43.74
2023-05-20T17:46:28.987Z,43.93
2023-05-20T17:48:56.764Z,44.22
2023-05-20T17:51:23.311Z,43.43
2023-05-20T17:53:49.807Z,43.35
2023-05-20T17:56:16.520Z,43.14
2023-05-20T17:58:44.992Z,43.04
2023-05-20T18:01:11.456Z,43.29
2023-05-20T18:03:39.701Z,43.04
2023-05-20T18:06:06.527Z,44.24
2023-05-20T18:08:33.776Z,44.26
2023-05-20T18:11:00.228Z,43.71
2023-05-20T18:13:26.650Z,44.34
2023-05-20T18:15:53.143Z,43.98
2023-05-20T18:18:19.676Z,44.25
2023-05-20T18:20:46.094Z,44.04
2023-05-20T18:23:12.525Z,43.63
2023-05-20T18:25:41.103Z,43.58
2023-05-20T18:28:09.675Z,44.81
2023-05-20T18:30:36.595Z,44.42
2023-05-20T18:33:03.390Z,44.30
2023-05-20T18:35:29.792Z,44.81
2023-05-20T18:37:56.352Z,44.34
2023-05-20T18:40:22.807Z,43.99
2023-05-20T18:42:49.255Z,44.67
2023-05-20T18:45:16.075Z,45.30
2023-05-20T18:47:43.616Z,45.19
2023-05-20T18:50:10.765Z,45.83
2023-05-20T18:52:37.248Z,45.39
2023-05-20T18:55:04.020Z,45.17
2023-05-20T18:57:33.217Z,45.28
2023-05-20T18:59:59.688Z,44.95
2023-05-20T19:02:26.094Z,45.27
2023-05-20T19:04:52.571Z,45.05
2023-05-20T19:07:19.019Z,45.18
2023-05-20T19:09:45.525Z,45.92
2023-05-20T19:12:11.960Z,45.82
2023-05-20T19:14:38.368Z,46.19
2023-05-20T19:17:05.475Z,46.40
2023-05-20T19:19:32.028Z,45.15
2023-05-20T19:21:58.681Z,46.21
2023-05-20T19:24:25.596Z,45.83
2023-05-20T19:26:52.044Z,46.10
2023-05-20T19:29:18.538Z,46.52
2023-05-20T19:31:45.823Z,46.55
2023-05-20T19:34:12.214Z,46.37
2023-05-20T19:36:40.232Z,46.67
2023-05-20T19:39:07.673Z,46.58
2023-05-20T19:41:34.292Z,46.72
2023-05-20T19:44:01.686Z,46.45
2023-05-20T19:46:28.313Z,47.27
2023-05-20T19:48:54.791Z,47.56
2023-05-20T19:51:21.577Z,47.69
2023-05-20T19:53:47.927Z,48.09
2023-05-20T19:56:19.174Z,47.32
2023-05-20T19:58:46.320Z,47.64
2023-05-20T20:01:16.956Z,47.50
2023-05-20T20:03:44.147Z,47.84
2023-05-20T20:06:10.862Z,47.33
2023-05-20T20:08:41.608Z,47.65
2023-05-20T20:11:08.996Z,48.40
2023-05-20T20:13:35.516Z,48.34
2023-05-20T20:16:01.971Z,47.95
2023-05-20T20:18:28.398Z,48.08
2023-05-20T20:20:54.772Z,48.68
2023-05-20T20:23:21.374Z,48.41
2023-05-20T20:25:48.250Z,49.29
2023-05-20T20:28:14.754Z,48.21
2023-05-20T20:30:41.112Z,49.46
2023-05-20T20:33:09.478Z,49.19
2023-05-20T20:35:37.039Z,49.08
2023-05-20T20:38:08.765Z,49.02
2023-05-20T20:40:41.836Z,48.77
2023-05-20T20:43:10.790Z,49.29
2023-05-20T20:45:37.392Z,49.89
2023-05-20T20:48:08.139Z,50.12
2023-05-20T20:50:35.703Z,49.78
2023-05-20T20:53:02.350Z,49.56
2023-05-20T20:55:31.620Z,50.41
2023-05-20T20:58:02.352Z,50.08
2023-05-20T21:00:28.752Z,50.27
2023-05-20T21:02:55.283Z,50.27
2023-05-20T21:05:26.277Z,49.99
2023-05-20T21:07:58.222Z,51.16
2023-05-20T21:10:29.584Z,51.41
2023-05-20T21:12:57.460Z,51.61
2023-05-20T21:15:24.883Z,51.36
2023-05-20T21:17:51.522Z,52.18
2023-05-20T21:20:21.353Z,52.09
2023-05-20T21:22:48.270Z,52.02
2023-05-20T21:25:14.922Z,51.14
2023-05-20T21:27:41.484Z,51.64
2023-05-20T21:30:10.111Z,52.13
2023-05-20T21:32:37.040Z,51.84
2023-05-20T21:35:03.903Z,52.81
2023-05-20T21:37:30.757Z,52.25
2023-05-20T21:39:57.122Z,52.10
2023-05-20T21:42:23.546Z,53.25
2023-05-20T21:44:49.958Z,53.26
2023-05-20T21:47:16.350Z,53.12
2023-05-20T21:49:42.931Z,54.21
2023-05-20T21:52:09.673Z,52.89
2023-05-20T21:54:36.189Z,53.01
2023-05-20T21:57:02.696Z,53.78
2023-05-20T21:59:29.065Z,52.32
2023-05-20T22:01:56.261Z,53.02
2023-05-20T22:04:23.099Z,53.38
2023-05-20T22:06:50.986Z,53.99
2023-05-20T22:09:17.490Z,54.18
2023-05-20T22:11:45.038Z,54.02
2023-05-20T22:14:16.210Z,54.21
2023-05-20T22:16:46.688Z,54.19
2023-05-20T22:19:15.139Z,54.84
2023-05-20T22:21:50.406Z,54.77
2023-05-20T22:24:18.035Z,54.48
2023-05-20T22:26:44.681Z,54.94
2023-05-20T22:29:11.132Z,55.41
2023-05-20T22:31:38.116Z,54.94
2023-05-20T22:34:05.385Z,55.38
2023-05-20T22:36:36.044Z,55.40
2023-05-20T22:39:04.093Z,55.55
2023-05-20T22:41:30.889Z,55.87
2023-05-20T22:43:57.461Z,55.46
2023-05-20T22:46:24.549Z,56.08
2023-05-20T22:48:55.300Z,56.59
2023-05-20T22:51:22.618Z,57.08
2023-05-20T22:53:49.302Z,56.60
2023-05-20T22:56:16.015Z,56.51
2023-05-20T22:58:42.541Z,56.17
2023-05-20T23:01:09.500Z,57.17
2023-05-20T23:03:36.404Z,56.92
2023-05-20T23:06:02.887Z,56.93
2023-05-20T23:08:29.447Z,57.17
2023-05-20T23:10:55.985Z,56.97
2023-05-20T23:13:22.447Z,57.14
2023-05-20T23:15:49.131Z,57.17
2023-05-20T23:18:16.103Z,56.46
2023-05-20T23:20:42.637Z,57.13
2023-05-20T23:23:11.467Z,57.12
2023-05-20T23:25:38.546Z,57.17
2023-05-20T23:28:05.771Z,58.41
2023-05-20T23:30:32.167Z,57.20
2023-05-20T23:32:58.648Z,57.34
2023-05-20T23:35:25.642Z,57.75
2023-05-20T23:37:52.360Z,57.77
2023-05-20T23:40:19.033Z,58.64
2023-05-20T23:42:45.451Z,58.05
2023-05-20T23:45:12.083Z,58.02
2023-05-20T23:47:38.494Z,58.09
2023-05-20T23:50:05.244Z,59.09
2023-05-20T23:52:31.658Z,58.66
2023-05-20T23:54:58.541Z,59.37
2023-05-20T23:57:24.924Z,58.89
2023-05-20T23:59:51.495Z,59.69
